sensor_id;sensor_type;location;lat;lon;timestamp;pressure;altitude;pressure_sealevel;temperature;humidity
1029;BME280;503;48.120;11.488;2022-07-04T00:00:02;95579.16;;;25.28;46.50
1029;BME280;503;48.120;11.488;2022-07-04T00:02:28;95589.91;;;24.68;47.31
1029;BME280;503;48.120;11.488;2022-07-04T00:04:53;95591.25;;;24.22;50.06
1029;BME280;503;48.120;11.488;2022-07-04T00:07:18;95583.28;;;23.89;53.36
1029;BME280;503;48.120;11.488;2022-07-04T00:09:44;95571.69;;;23.44;53.80
1029;BME280;503;48.120;11.488;2022-07-04T00:12:09;95567.81;;;22.29;58.46
1029;BME280;503;48.120;11.488;2022-07-04T00:14:35;95585.03;;;21.61;62.03
1029;BME280;503;48.120;11.488;2022-07-04T00:17:00;95592.16;;;21.46;63.36
1029;BME280;503;48.120;11.488;2022-07-04T00:19:25;95572.53;;;21.07;66.40
1029;BME280;503;48.120;11.488;2022-07-04T00:21:51;95567.22;;;20.91;67.54
1029;BME280;503;48.120;11.488;2022-07-04T00:24:16;95572.13;;;21.05;66.41
1029;BME280;503;48.120;11.488;2022-07-04T00:26:42;95577.53;;;21.51;65.83
1029;BME280;503;48.120;11.488;2022-07-04T00:29:07;95577.13;;;21.75;63.31
1029;BME280;503;48.120;11.488;2022-07-04T00:31:32;95570.84;;;22.24;63.03
1029;BME280;503;48.120;11.488;2022-07-04T00:33:57;95576.75;;;22.67;62.79
1029;BME280;503;48.120;11.488;2022-07-04T00:36:23;95573.19;;;22.60;61.49
1029;BME280;503;48.120;11.488;2022-07-04T00:38:48;95563.25;;;22.71;60.89
1029;BME280;503;48.120;11.488;2022-07-04T00:41:13;95553.38;;;22.55;60.56
1029;BME280;503;48.120;11.488;2022-07-04T00:43:39;95543.75;;;22.95;59.53
1029;BME280;503;48.120;11.488;2022-07-04T00:46:04;95504.88;;;22.84;59.45
1029;BME280;503;48.120;11.488;2022-07-04T00:48:31;95531.53;;;23.16;59.53
1029;BME280;503;48.120;11.488;2022-07-04T00:50:57;95558.09;;;23.44;58.80
1029;BME280;503;48.120;11.488;2022-07-04T00:53:23;95580.97;;;22.95;59.20
1029;BME280;503;48.120;11.488;2022-07-04T00:55:50;95563.13;;;22.94;59.20
1029;BME280;503;48.120;11.488;2022-07-04T00:58:19;95577.16;;;22.36;60.18
1029;BME280;503;48.120;11.488;2022-07-04T01:00:44;95540.72;;;22.67;58.87
1029;BME280;503;48.120;11.488;2022-07-04T01:03:10;95588.91;;;23.14;59.73
1029;BME280;503;48.120;11.488;2022-07-04T01:05:35;95618.03;;;23.21;58.53
1029;BME280;503;48.120;11.488;2022-07-04T01:08:00;95593.81;;;23.46;57.99
1029;BME280;503;48.120;11.488;2022-07-04T01:10:26;95564.41;;;23.55;58.38
1029;BME280;503;48.120;11.488;2022-07-04T01:12:51;95566.53;;;23.76;58.19
1029;BME280;503;48.120;11.488;2022-07-04T01:15:17;95563.47;;;23.81;57.97
1029;BME280;503;48.120;11.488;2022-07-04T01:17:42;95586.41;;;23.91;57.73
1029;BME280;503;48.120;11.488;2022-07-04T01:20:12;95583.72;;;23.98;56.79
1029;BME280;503;48.120;11.488;2022-07-04T01:22:37;95574.13;;;24.18;55.76
1029;BME280;503;48.120;11.488;2022-07-04T01:25:03;95578.34;;;24.01;56.08
1029;BME280;503;48.120;11.488;2022-07-04T01:27:28;95565.06;;;23.93;55.64
1029;BME280;503;48.120;11.488;2022-07-04T01:29:54;95575.59;;;23.98;55.64
1029;BME280;503;48.120;11.488;2022-07-04T01:32:19;95586.47;;;24.01;55.10
1029;BME280;503;48.120;11.488;2022-07-04T01:34:45;95572.13;;;24.01;54.93
1029;BME280;503;48.120;11.488;2022-07-04T01:37:10;95572.91;;;24.05;54.26
1029;BME280;503;48.120;11.488;2022-07-04T01:39:36;95571.31;;;24.00;54.28
1029;BME280;503;48.120;11.488;2022-07-04T01:42:01;95559.72;;;24.10;53.74
1029;BME280;503;48.120;11.488;2022-07-04T01:44:27;95556.63;;;24.16;54.07
1029;BME280;503;48.120;11.488;2022-07-04T01:46:52;95550.06;;;24.20;54.18
1029;BME280;503;48.120;11.488;2022-07-04T01:49:17;95524.41;;;24.07;54.04
1029;BME280;503;48.120;11.488;2022-07-04T01:51:44;95522.84;;;24.09;54.16
1029;BME280;503;48.120;11.488;2022-07-04T01:54:10;95533.41;;;24.22;53.78
1029;BME280;503;48.120;11.488;2022-07-04T01:56:35;95522.88;;;24.20;53.05
1029;BME280;503;48.120;11.488;2022-07-04T01:59:00;95510.88;;;24.25;53.07
1029;BME280;503;48.120;11.488;2022-07-04T02:01:28;95500.34;;;24.12;52.68
1029;BME280;503;48.120;11.488;2022-07-04T02:03:58;95508.94;;;24.29;52.37
1029;BME280;503;48.120;11.488;2022-07-04T02:06:23;95487.59;;;24.31;52.38
1029;BME280;503;48.120;11.488;2022-07-04T02:08:49;95506.31;;;24.43;51.96
1029;BME280;503;48.120;11.488;2022-07-04T02:11:33;95499.69;;;24.41;51.43
1029;BME280;503;48.120;11.488;2022-07-04T02:14:19;95501.25;;;24.45;51.69
1029;BME280;503;48.120;11.488;2022-07-04T02:16:44;95512.78;;;24.21;50.93
1029;BME280;503;48.120;11.488;2022-07-04T02:19:09;95519.63;;;23.86;51.49
1029;BME280;503;48.120;11.488;2022-07-04T02:21:35;95529.13;;;23.55;52.27
1029;BME280;503;48.120;11.488;2022-07-04T02:24:00;95540.66;;;23.96;51.91
1029;BME280;503;48.120;11.488;2022-07-04T02:26:25;95534.88;;;24.08;51.20
1029;BME280;503;48.120;11.488;2022-07-04T02:28:51;95526.41;;;24.24;50.94
1029;BME280;503;48.120;11.488;2022-07-04T02:31:17;95525.59;;;24.17;51.37
1029;BME280;503;48.120;11.488;2022-07-04T02:33:43;95524.88;;;24.30;50.86
1029;BME280;503;48.120;11.488;2022-07-04T02:36:08;95512.84;;;24.35;51.19
1029;BME280;503;48.120;11.488;2022-07-04T02:38:33;95523.03;;;24.49;51.02
1029;BME280;503;48.120;11.488;2022-07-04T02:40:58;95520.69;;;24.44;51.45
1029;BME280;503;48.120;11.488;2022-07-04T02:43:24;95489.50;;;24.16;51.26
1029;BME280;503;48.120;11.488;2022-07-04T02:45:49;95530.66;;;24.25;50.30
1029;BME280;503;48.120;11.488;2022-07-04T02:48:14;95527.53;;;24.12;51.16
1029;BME280;503;48.120;11.488;2022-07-04T02:50:40;95544.22;;;24.11;51.17
1029;BME280;503;48.120;11.488;2022-07-04T02:53:05;95514.97;;;23.86;51.40
1029;BME280;503;48.120;11.488;2022-07-04T02:55:30;95546.50;;;24.02;51.87
1029;BME280;503;48.120;11.488;2022-07-04T02:57:56;95547.59;;;23.94;52.17
1029;BME280;503;48.120;11.488;2022-07-04T03:00:21;95527.72;;;23.79;52.00
1029;BME280;503;48.120;11.488;2022-07-04T03:02:46;95562.28;;;23.82;52.79
1029;BME280;503;48.120;11.488;2022-07-04T03:05:12;95554.88;;;23.79;52.65
1029;BME280;503;48.120;11.488;2022-07-04T03:07:37;95546.75;;;23.75;53.44
1029;BME280;503;48.120;11.488;2022-07-04T03:10:03;95538.16;;;23.66;53.64
1029;BME280;503;48.120;11.488;2022-07-04T03:12:28;95545.16;;;23.71;54.29
1029;BME280;503;48.120;11.488;2022-07-04T03:14:53;95553.66;;;23.66;54.05
1029;BME280;503;48.120;11.488;2022-07-04T03:17:19;95537.22;;;23.51;54.14
1029;BME280;503;48.120;11.488;2022-07-04T03:19:44;95544.25;;;23.59;54.78
1029;BME280;503;48.120;11.488;2022-07-04T03:22:10;95530.25;;;23.50;55.27
1029;BME280;503;48.120;11.488;2022-07-04T03:24:35;95536.31;;;23.33;55.07
1029;BME280;503;48.120;11.488;2022-07-04T03:27:01;95550.03;;;23.51;55.27
1029;BME280;503;48.120;11.488;2022-07-04T03:29:26;95554.53;;;23.32;56.34
1029;BME280;503;48.120;11.488;2022-07-04T03:31:51;95553.31;;;22.86;56.19
1029;BME280;503;48.120;11.488;2022-07-04T03:34:17;95587.50;;;23.31;55.84
1029;BME280;503;48.120;11.488;2022-07-04T03:36:42;95571.25;;;23.38;55.93
1029;BME280;503;48.120;11.488;2022-07-04T03:39:07;95553.41;;;23.37;56.02
1029;BME280;503;48.120;11.488;2022-07-04T03:41:33;95571.81;;;23.61;55.73
1029;BME280;503;48.120;11.488;2022-07-04T03:43:58;95582.44;;;23.77;56.02
1029;BME280;503;48.120;11.488;2022-07-04T03:46:23;95573.97;;;23.90;55.97
1029;BME280;503;48.120;11.488;2022-07-04T03:48:49;95579.47;;;23.97;55.03
1029;BME280;503;48.120;11.488;2022-07-04T03:51:15;95566.25;;;23.92;54.67
1029;BME280;503;48.120;11.488;2022-07-04T03:53:41;95598.22;;;24.20;54.52
1029;BME280;503;48.120;11.488;2022-07-04T03:56:06;95577.03;;;23.81;54.99
1029;BME280;503;48.120;11.488;2022-07-04T03:58:33;95598.41;;;23.90;54.71
1029;BME280;503;48.120;11.488;2022-07-04T04:00:59;95596.06;;;23.81;54.53
1029;BME280;503;48.120;11.488;2022-07-04T04:03:24;95605.56;;;24.12;54.32
1029;BME280;503;48.120;11.488;2022-07-04T04:06:08;95600.53;;;24.18;54.44
1029;BME280;503;48.120;11.488;2022-07-04T04:08:34;95603.69;;;24.30;54.26
1029;BME280;503;48.120;11.488;2022-07-04T04:10:59;95631.81;;;24.52;54.08
1029;BME280;503;48.120;11.488;2022-07-04T04:13:24;95630.78;;;24.09;54.69
1029;BME280;503;48.120;11.488;2022-07-04T04:15:50;95641.38;;;24.28;53.93
1029;BME280;503;48.120;11.488;2022-07-04T04:18:15;95617.19;;;24.09;53.90
1029;BME280;503;48.120;11.488;2022-07-04T04:20:40;95636.81;;;24.43;53.57
1029;BME280;503;48.120;11.488;2022-07-04T04:23:06;95640.34;;;24.51;53.30
1029;BME280;503;48.120;11.488;2022-07-04T04:25:31;95632.63;;;24.60;53.20
1029;BME280;503;48.120;11.488;2022-07-04T04:27:57;95650.97;;;24.81;53.86
1029;BME280;503;48.120;11.488;2022-07-04T04:30:22;95629.63;;;24.90;53.72
1029;BME280;503;48.120;11.488;2022-07-04T04:32:48;95652.28;;;25.19;53.46
1029;BME280;503;48.120;11.488;2022-07-04T04:35:13;95625.44;;;25.21;52.82
1029;BME280;503;48.120;11.488;2022-07-04T04:37:38;95631.31;;;25.37;52.87
1029;BME280;503;48.120;11.488;2022-07-04T04:40:04;95640.28;;;25.59;52.28
1029;BME280;503;48.120;11.488;2022-07-04T04:42:30;95623.91;;;25.63;51.76
1029;BME280;503;48.120;11.488;2022-07-04T04:44:55;95614.22;;;25.76;51.40
1029;BME280;503;48.120;11.488;2022-07-04T04:47:20;95631.72;;;25.82;50.78
1029;BME280;503;48.120;11.488;2022-07-04T04:49:46;95655.88;;;25.87;50.37
1029;BME280;503;48.120;11.488;2022-07-04T04:52:12;95644.94;;;25.73;51.18
1029;BME280;503;48.120;11.488;2022-07-04T04:54:38;95649.25;;;25.78;51.18
1029;BME280;503;48.120;11.488;2022-07-04T04:57:04;95653.53;;;25.86;51.11
1029;BME280;503;48.120;11.488;2022-07-04T04:59:30;95665.22;;;25.97;50.37
1029;BME280;503;48.120;11.488;2022-07-04T05:01:56;95653.16;;;25.87;51.38
1029;BME280;503;48.120;11.488;2022-07-04T05:04:22;95698.13;;;25.06;52.88
1029;BME280;503;48.120;11.488;2022-07-04T05:06:47;95716.09;;;25.32;52.54
1029;BME280;503;48.120;11.488;2022-07-04T05:09:12;95699.00;;;25.46;52.84
1029;BME280;503;48.120;11.488;2022-07-04T05:11:38;95705.25;;;25.54;52.01
1029;BME280;503;48.120;11.488;2022-07-04T05:14:03;95716.56;;;25.66;51.65
1029;BME280;503;48.120;11.488;2022-07-04T05:16:28;95707.19;;;25.57;51.13
1029;BME280;503;48.120;11.488;2022-07-04T05:18:54;95698.25;;;25.49;51.21
1029;BME280;503;48.120;11.488;2022-07-04T05:21:19;95683.81;;;25.41;50.88
1029;BME280;503;48.120;11.488;2022-07-04T05:23:45;95699.03;;;25.64;50.72
1029;BME280;503;48.120;11.488;2022-07-04T05:26:10;95705.63;;;25.41;50.56
1029;BME280;503;48.120;11.488;2022-07-04T05:28:36;95693.34;;;24.85;51.23
1029;BME280;503;48.120;11.488;2022-07-04T05:31:01;95662.31;;;25.04;51.12
1029;BME280;503;48.120;11.488;2022-07-04T05:33:27;95706.88;;;25.76;51.07
1029;BME280;503;48.120;11.488;2022-07-04T05:35:53;95641.44;;;25.62;50.73
1029;BME280;503;48.120;11.488;2022-07-04T05:38:18;95664.81;;;25.99;50.09
1029;BME280;503;48.120;11.488;2022-07-04T05:40:45;95652.72;;;26.17;49.10
1029;BME280;503;48.120;11.488;2022-07-04T05:43:10;95661.25;;;26.34;48.72
1029;BME280;503;48.120;11.488;2022-07-04T05:45:37;95674.53;;;26.42;48.43
1029;BME280;503;48.120;11.488;2022-07-04T05:48:02;95721.59;;;26.75;47.70
1029;BME280;503;48.120;11.488;2022-07-04T05:50:28;95686.56;;;26.56;47.36
1029;BME280;503;48.120;11.488;2022-07-04T05:52:53;95718.88;;;26.75;47.63
1029;BME280;503;48.120;11.488;2022-07-04T05:55:19;95691.63;;;26.61;48.21
1029;BME280;503;48.120;11.488;2022-07-04T05:57:44;95739.50;;;26.87;47.44
1029;BME280;503;48.120;11.488;2022-07-04T06:00:10;95724.31;;;26.82;48.18
1029;BME280;503;48.120;11.488;2022-07-04T06:02:37;95731.75;;;26.64;48.04
1029;BME280;503;48.120;11.488;2022-07-04T06:05:02;95741.53;;;26.43;49.44
1029;BME280;503;48.120;11.488;2022-07-04T06:07:28;95740.34;;;26.34;49.74
1029;BME280;503;48.120;11.488;2022-07-04T06:09:53;95741.53;;;26.15;49.35
1029;BME280;503;48.120;11.488;2022-07-04T06:12:19;95702.97;;;25.77;49.56
1029;BME280;503;48.120;11.488;2022-07-04T06:14:44;95717.00;;;25.76;49.53
1029;BME280;503;48.120;11.488;2022-07-04T06:17:11;95736.47;;;25.96;50.26
1029;BME280;503;48.120;11.488;2022-07-04T06:19:36;95739.97;;;26.00;50.23
1029;BME280;503;48.120;11.488;2022-07-04T06:22:02;95717.41;;;26.06;50.44
1029;BME280;503;48.120;11.488;2022-07-04T06:24:27;95733.69;;;25.71;50.33
1029;BME280;503;48.120;11.488;2022-07-04T06:26:53;95726.47;;;25.02;52.25
1029;BME280;503;48.120;11.488;2022-07-04T06:29:18;95731.22;;;25.23;52.28
1029;BME280;503;48.120;11.488;2022-07-04T06:31:43;95744.97;;;25.69;51.45
1029;BME280;503;48.120;11.488;2022-07-04T06:34:09;95712.25;;;25.58;51.14
1029;BME280;503;48.120;11.488;2022-07-04T06:36:53;95736.06;;;25.76;51.15
1029;BME280;503;48.120;11.488;2022-07-04T06:39:18;95701.34;;;25.48;51.61
1029;BME280;503;48.120;11.488;2022-07-04T06:41:44;95747.75;;;26.08;50.79
1029;BME280;503;48.120;11.488;2022-07-04T06:44:09;95723.59;;;26.00;50.59
1029;BME280;503;48.120;11.488;2022-07-04T06:46:34;95731.81;;;26.17;50.53
1029;BME280;503;48.120;11.488;2022-07-04T06:49:00;95678.06;;;26.00;50.93
1029;BME280;503;48.120;11.488;2022-07-04T06:51:25;95739.19;;;26.46;49.70
1029;BME280;503;48.120;11.488;2022-07-04T06:53:50;95747.34;;;26.35;50.81
1029;BME280;503;48.120;11.488;2022-07-04T06:56:17;95751.66;;;26.29;50.39
1029;BME280;503;48.120;11.488;2022-07-04T06:58:42;95744.25;;;26.36;50.70
1029;BME280;503;48.120;11.488;2022-07-04T07:01:07;95752.06;;;26.52;50.25
1029;BME280;503;48.120;11.488;2022-07-04T07:03:32;95745.84;;;26.52;49.79
1029;BME280;503;48.120;11.488;2022-07-04T07:05:58;95749.72;;;26.36;50.18
1029;BME280;503;48.120;11.488;2022-07-04T07:08:23;95761.00;;;26.03;50.90
1029;BME280;503;48.120;11.488;2022-07-04T07:10:49;95750.47;;;26.30;51.15
1029;BME280;503;48.120;11.488;2022-07-04T07:13:14;95762.94;;;26.31;50.73
1029;BME280;503;48.120;11.488;2022-07-04T07:15:40;95761.38;;;25.98;51.39
1029;BME280;503;48.120;11.488;2022-07-04T07:18:06;95769.91;;;25.71;51.96
1029;BME280;503;48.120;11.488;2022-07-04T07:20:31;95771.91;;;25.92;52.22
1029;BME280;503;48.120;11.488;2022-07-04T07:22:57;95781.94;;;25.66;53.21
1029;BME280;503;48.120;11.488;2022-07-04T07:25:22;95764.00;;;25.44;52.64
1029;BME280;503;48.120;11.488;2022-07-04T07:27:47;95769.38;;;25.26;53.04
1029;BME280;503;48.120;11.488;2022-07-04T07:30:13;95775.31;;;24.77;54.59
1029;BME280;503;48.120;11.488;2022-07-04T07:32:38;95766.28;;;25.35;53.83
1029;BME280;503;48.120;11.488;2022-07-04T07:35:04;95766.47;;;25.96;53.01
1029;BME280;503;48.120;11.488;2022-07-04T07:37:30;95774.13;;;25.51;53.63
1029;BME280;503;48.120;11.488;2022-07-04T07:39:55;95764.44;;;25.71;52.42
1029;BME280;503;48.120;11.488;2022-07-04T07:42:23;95769.16;;;25.88;51.76
1029;BME280;503;48.120;11.488;2022-07-04T07:44:48;95751.28;;;26.23;51.71
1029;BME280;503;48.120;11.488;2022-07-04T07:47:14;95737.88;;;27.18;50.24
1029;BME280;503;48.120;11.488;2022-07-04T07:49:41;95743.41;;;27.81;48.85
1029;BME280;503;48.120;11.488;2022-07-04T07:52:06;95720.44;;;28.19;46.95
1029;BME280;503;48.120;11.488;2022-07-04T07:54:31;95721.84;;;28.76;45.63
1029;BME280;503;48.120;11.488;2022-07-04T07:56:57;95724.41;;;28.97;45.19
1029;BME280;503;48.120;11.488;2022-07-04T07:59:22;95733.66;;;29.38;44.60
1029;BME280;503;48.120;11.488;2022-07-04T08:01:47;95725.56;;;29.61;44.14
1029;BME280;503;48.120;11.488;2022-07-04T08:04:12;95698.00;;;29.72;42.29
1029;BME280;503;48.120;11.488;2022-07-04T08:06:56;95718.28;;;30.28;42.12
1029;BME280;503;48.120;11.488;2022-07-04T08:09:21;95711.75;;;30.42;41.60
1029;BME280;503;48.120;11.488;2022-07-04T08:11:47;95718.41;;;30.65;40.33
1029;BME280;503;48.120;11.488;2022-07-04T08:14:12;95716.28;;;30.96;40.57
1029;BME280;503;48.120;11.488;2022-07-04T08:16:38;95712.13;;;31.08;40.55
1029;BME280;503;48.120;11.488;2022-07-04T08:19:03;95704.38;;;31.22;38.83
1029;BME280;503;48.120;11.488;2022-07-04T08:21:28;95700.28;;;31.11;38.88
1029;BME280;503;48.120;11.488;2022-07-04T08:23:54;95692.53;;;30.86;38.85
1029;BME280;503;48.120;11.488;2022-07-04T08:26:20;95674.81;;;30.47;39.17
1029;BME280;503;48.120;11.488;2022-07-04T08:28:45;95685.72;;;30.50;40.33
1029;BME280;503;48.120;11.488;2022-07-04T08:31:11;95689.41;;;30.64;39.63
1029;BME280;503;48.120;11.488;2022-07-04T08:33:36;95686.06;;;30.76;40.11
1029;BME280;503;48.120;11.488;2022-07-04T08:36:03;95688.34;;;30.58;39.29
1029;BME280;503;48.120;11.488;2022-07-04T08:38:29;95698.03;;;29.95;40.41
1029;BME280;503;48.120;11.488;2022-07-04T08:40:59;95691.09;;;29.87;41.33
1029;BME280;503;48.120;11.488;2022-07-04T08:43:28;95695.28;;;29.68;40.84
1029;BME280;503;48.120;11.488;2022-07-04T08:45:59;95690.53;;;29.45;41.21
1029;BME280;503;48.120;11.488;2022-07-04T08:48:25;95683.50;;;29.44;42.15
1029;BME280;503;48.120;11.488;2022-07-04T08:51:13;95694.84;;;29.12;40.96
1029;BME280;503;48.120;11.488;2022-07-04T08:53:53;95678.56;;;29.01;41.10
1029;BME280;503;48.120;11.488;2022-07-04T08:56:21;95676.09;;;29.11;41.70
1029;BME280;503;48.120;11.488;2022-07-04T08:59:06;95685.03;;;29.18;42.34
1029;BME280;503;48.120;11.488;2022-07-04T09:01:33;95675.66;;;28.47;42.59
1029;BME280;503;48.120;11.488;2022-07-04T09:03:58;95682.06;;;28.68;41.97
1029;BME280;503;48.120;11.488;2022-07-04T09:06:26;95680.69;;;27.52;42.71
1029;BME280;503;48.120;11.488;2022-07-04T09:08:53;95673.34;;;27.97;42.96
1029;BME280;503;48.120;11.488;2022-07-04T09:11:18;95664.69;;;28.51;42.08
1029;BME280;503;48.120;11.488;2022-07-04T09:13:43;95663.59;;;29.10;41.25
1029;BME280;503;48.120;11.488;2022-07-04T09:16:09;95682.66;;;29.47;40.26
1029;BME280;503;48.120;11.488;2022-07-04T09:18:36;95676.63;;;30.10;38.54
1029;BME280;503;48.120;11.488;2022-07-04T09:21:04;95702.75;;;29.68;39.16
1029;BME280;503;48.120;11.488;2022-07-04T09:23:33;95696.97;;;28.67;40.72
1029;BME280;503;48.120;11.488;2022-07-04T09:26:41;95706.31;;;27.03;42.62
1029;BME280;503;48.120;11.488;2022-07-04T09:28:59;95705.63;;;27.58;41.76
1029;BME280;503;48.120;11.488;2022-07-04T09:31:25;95692.94;;;28.75;39.53
1029;BME280;503;48.120;11.488;2022-07-04T09:33:52;95690.63;;;29.92;38.47
1029;BME280;503;48.120;11.488;2022-07-04T09:36:20;95693.56;;;29.55;38.09
1029;BME280;503;48.120;11.488;2022-07-04T09:39:03;95678.88;;;27.90;41.08
1029;BME280;503;48.120;11.488;2022-07-04T09:41:29;95704.31;;;27.84;41.63
1029;BME280;503;48.120;11.488;2022-07-04T09:44:05;95695.88;;;28.12;41.24
1029;BME280;503;48.120;11.488;2022-07-04T09:46:31;95679.56;;;29.45;39.20
1029;BME280;503;48.120;11.488;2022-07-04T09:48:57;95685.03;;;28.05;41.28
1029;BME280;503;48.120;11.488;2022-07-04T09:51:37;95692.03;;;28.85;39.45
1029;BME280;503;48.120;11.488;2022-07-04T09:54:17;95679.41;;;29.83;38.16
1029;BME280;503;48.120;11.488;2022-07-04T09:56:48;95699.78;;;29.28;39.01
1029;BME280;503;48.120;11.488;2022-07-04T09:59:13;95688.34;;;29.33;38.37
1029;BME280;503;48.120;11.488;2022-07-04T10:01:39;95642.41;;;28.83;38.51
1029;BME280;503;48.120;11.488;2022-07-04T10:04:05;95668.13;;;29.54;38.02
1029;BME280;503;48.120;11.488;2022-07-04T10:06:32;95688.94;;;29.75;37.09
1029;BME280;503;48.120;11.488;2022-07-04T10:09:27;95677.03;;;31.15;36.38
1029;BME280;503;48.120;11.488;2022-07-04T10:11:53;95677.25;;;31.77;34.48
1029;BME280;503;48.120;11.488;2022-07-04T10:14:18;95673.88;;;32.34;33.80
1029;BME280;503;48.120;11.488;2022-07-04T10:16:44;95670.91;;;32.45;32.44
1029;BME280;503;48.120;11.488;2022-07-04T10:19:09;95636.69;;;33.01;31.94
1029;BME280;503;48.120;11.488;2022-07-04T10:21:37;95684.22;;;33.59;31.24
1029;BME280;503;48.120;11.488;2022-07-04T10:24:02;95677.38;;;33.64;30.33
1029;BME280;503;48.120;11.488;2022-07-04T10:26:28;95669.25;;;34.21;30.45
1029;BME280;503;48.120;11.488;2022-07-04T10:28:55;95693.53;;;34.73;29.82
1029;BME280;503;48.120;11.488;2022-07-04T10:31:22;95679.50;;;34.89;29.56
1029;BME280;503;48.120;11.488;2022-07-04T10:33:49;95692.84;;;34.34;29.71
1029;BME280;503;48.120;11.488;2022-07-04T10:36:26;95695.22;;;34.71;28.81
1029;BME280;503;48.120;11.488;2022-07-04T10:39:00;95694.16;;;35.12;28.35
1029;BME280;503;48.120;11.488;2022-07-04T10:41:28;95686.13;;;35.36;28.63
1029;BME280;503;48.120;11.488;2022-07-04T10:43:56;95692.81;;;35.79;27.82
1029;BME280;503;48.120;11.488;2022-07-04T10:49:04;95690.69;;;35.92;26.56
1029;BME280;503;48.120;11.488;2022-07-04T10:54:35;95679.81;;;35.66;28.03
1029;BME280;503;48.120;11.488;2022-07-04T10:59:36;95648.78;;;35.40;28.17
1029;BME280;503;48.120;11.488;2022-07-04T11:07:15;95677.63;;;32.12;31.59
1029;BME280;503;48.120;11.488;2022-07-04T11:09:41;95681.13;;;31.79;31.79
1029;BME280;503;48.120;11.488;2022-07-04T11:12:08;95685.28;;;30.95;33.30
1029;BME280;503;48.120;11.488;2022-07-04T11:14:44;95676.78;;;32.15;32.70
1029;BME280;503;48.120;11.488;2022-07-04T11:17:15;95668.03;;;32.49;31.54
1029;BME280;503;48.120;11.488;2022-07-04T11:19:44;95688.59;;;29.12;36.67
1029;BME280;503;48.120;11.488;2022-07-04T11:22:10;95680.88;;;29.64;36.47
1029;BME280;503;48.120;11.488;2022-07-04T11:24:36;95671.88;;;29.64;36.52
1029;BME280;503;48.120;11.488;2022-07-04T11:27:02;95668.06;;;30.51;34.75
1029;BME280;503;48.120;11.488;2022-07-04T11:29:29;95659.03;;;29.84;34.82
1029;BME280;503;48.120;11.488;2022-07-04T11:31:54;95656.13;;;29.68;35.73
1029;BME280;503;48.120;11.488;2022-07-04T11:34:21;95633.31;;;30.85;34.16
1029;BME280;503;48.120;11.488;2022-07-04T11:36:49;95643.91;;;31.58;32.47
1029;BME280;503;48.120;11.488;2022-07-04T11:39:16;95653.34;;;32.23;31.52
1029;BME280;503;48.120;11.488;2022-07-04T11:41:46;95650.38;;;33.04;30.61
1029;BME280;503;48.120;11.488;2022-07-04T11:44:34;95656.03;;;33.39;28.63
1029;BME280;503;48.120;11.488;2022-07-04T11:47:21;95640.44;;;32.94;29.99
1029;BME280;503;48.120;11.488;2022-07-04T11:49:49;95635.13;;;30.32;33.84
1029;BME280;503;48.120;11.488;2022-07-04T11:52:16;95649.91;;;30.38;34.10
1029;BME280;503;48.120;11.488;2022-07-04T11:54:43;95637.19;;;30.87;33.26
1029;BME280;503;48.120;11.488;2022-07-04T11:57:11;95641.16;;;29.99;34.58
1029;BME280;503;48.120;11.488;2022-07-04T11:59:37;95611.97;;;30.92;33.75
1029;BME280;503;48.120;11.488;2022-07-04T12:02:11;95636.09;;;31.01;33.95
1029;BME280;503;48.120;11.488;2022-07-04T12:04:37;95625.06;;;30.65;33.93
1029;BME280;503;48.120;11.488;2022-07-04T12:07:18;95644.59;;;29.80;35.38
1029;BME280;503;48.120;11.488;2022-07-04T12:09:45;95613.38;;;31.53;34.23
1029;BME280;503;48.120;11.488;2022-07-04T12:12:12;95632.47;;;31.44;32.77
1029;BME280;503;48.120;11.488;2022-07-04T12:14:39;95626.22;;;30.24;35.86
1029;BME280;503;48.120;11.488;2022-07-04T12:17:14;95638.00;;;28.59;36.64
1029;BME280;503;48.120;11.488;2022-07-04T12:19:55;95612.13;;;27.88;38.22
1029;BME280;503;48.120;11.488;2022-07-04T12:22:32;95623.44;;;28.28;37.24
1029;BME280;503;48.120;11.488;2022-07-04T12:24:59;95618.13;;;29.16;36.36
1029;BME280;503;48.120;11.488;2022-07-04T12:27:25;95621.50;;;28.96;36.48
1029;BME280;503;48.120;11.488;2022-07-04T12:29:52;95607.31;;;29.05;37.14
1029;BME280;503;48.120;11.488;2022-07-04T12:32:18;95617.44;;;28.78;37.04
1029;BME280;503;48.120;11.488;2022-07-04T12:34:44;95593.50;;;29.12;36.46
1029;BME280;503;48.120;11.488;2022-07-04T12:37:12;95607.50;;;28.19;36.93
1029;BME280;503;48.120;11.488;2022-07-04T12:39:40;95591.22;;;29.07;36.21
1029;BME280;503;48.120;11.488;2022-07-04T12:42:07;95557.41;;;28.94;36.40
1029;BME280;503;48.120;11.488;2022-07-04T12:44:38;95567.78;;;29.06;36.02
1029;BME280;503;48.120;11.488;2022-07-04T12:47:05;95570.56;;;29.80;34.64
1029;BME280;503;48.120;11.488;2022-07-04T12:49:32;95538.59;;;31.09;34.37
1029;BME280;503;48.120;11.488;2022-07-04T12:54:37;95572.81;;;30.28;34.60
1029;BME280;503;48.120;11.488;2022-07-04T12:57:14;95579.31;;;30.78;35.11
1029;BME280;503;48.120;11.488;2022-07-04T12:59:41;95577.59;;;30.64;33.74
1029;BME280;503;48.120;11.488;2022-07-04T13:02:08;95578.97;;;30.56;34.72
1029;BME280;503;48.120;11.488;2022-07-04T13:04:34;95558.59;;;30.93;34.56
1029;BME280;503;48.120;11.488;2022-07-04T13:07:12;95558.38;;;31.53;33.07
1029;BME280;503;48.120;11.488;2022-07-04T13:09:38;95564.97;;;32.33;32.29
1029;BME280;503;48.120;11.488;2022-07-04T13:12:03;95539.34;;;33.17;31.82
1029;BME280;503;48.120;11.488;2022-07-04T13:14:48;95540.44;;;34.05;30.98
1029;BME280;503;48.120;11.488;2022-07-04T13:17:13;95557.34;;;31.96;30.94
1029;BME280;503;48.120;11.488;2022-07-04T13:19:38;95542.75;;;31.66;31.42
1029;BME280;503;48.120;11.488;2022-07-04T13:22:04;95545.78;;;31.55;31.60
1029;BME280;503;48.120;11.488;2022-07-04T13:24:29;95542.78;;;31.50;32.16
1029;BME280;503;48.120;11.488;2022-07-04T13:26:54;95501.19;;;31.31;31.90
1029;BME280;503;48.120;11.488;2022-07-04T13:29:20;95528.25;;;32.40;31.75
1029;BME280;503;48.120;11.488;2022-07-04T13:31:47;95542.47;;;31.77;32.45
1029;BME280;503;48.120;11.488;2022-07-04T13:34:13;95533.50;;;32.05;32.89
1029;BME280;503;48.120;11.488;2022-07-04T13:36:38;95525.25;;;31.44;33.20